Calanus - UK — GBJK — position and weather

sailwx.info

Track history (hours):
 
Tides and Currents Weather Stations Pressure Air Temp Water Temp Dewpoint Dewpoint Depression Visibility Wind Speed Wind Dir Waves Ship Positions

Oceanographic research ship Calanus - UK (UK)

Detailed information on ship capabilities available from University of Delaware's Ocean Information Center.

Last reported at 2019-Apr-11 15:22 UTC. Time now 2019-Apr-19 10:20 UTC.
Position N 56°27' W 005°26'.

Length 19 m.

Type: Dredging. MMSI: 235050871.

Date/timePositionNaut miles runAvg speedWind from/ knotsBaromVisibWave heightAir tempDewpointWater temp
2019-Apr-11 15:22N 56°27' W 005°26'2 4.3
2019-Apr-11 14:58N 56°29' W 005°26'2 4.1
2019-Apr-11 14:28N 56°28' W 005°29'0 0.3
2019-Apr-11 13:55N 56°28' W 005°29'0 0.9
2019-Apr-11 13:24N 56°28' W 005°30'0 0.2
2019-Apr-11 12:55N 56°28' W 005°30'0 1.2
2019-Apr-11 12:30N 56°28' W 005°31'3 4.7
2019-Apr-11 11:57N 56°26' W 005°33'1 1.8
2019-Apr-11 11:11N 56°26' W 005°31'1 2.7
2019-Apr-11 11:00N 56°27' W 005°30'2 3.5
2019-Apr-11 10:30N 56°28' W 005°28'1 1.8
2019-Apr-11 10:00N 56°28' W 005°27'0 0.8
2019-Apr-11 09:29N 56°29' W 005°26'0 0.8
2019-Apr-11 08:58N 56°29' W 005°27'1 2.7
2019-Apr-11 08:30N 56°29' W 005°29'2 0.1
2019-Apr-10 16:47N 56°27' W 005°26'1 4.4
2019-Apr-10 16:28N 56°29' W 005°27'0 0.3
2019-Apr-10 15:57N 56°29' W 005°27'0 0.7
2019-Apr-10 15:25N 56°28' W 005°26'1 0.9
2019-Apr-10 14:47N 56°28' W 005°27'1 1.6
2019-Apr-10 14:23N 56°28' W 005°28'0 0.8
2019-Apr-10 14:00N 56°28' W 005°27'0 0.1
2019-Apr-10 13:15N 56°28' W 005°27'0 0.1
2019-Apr-10 12:48N 56°28' W 005°27'0 0.1
2019-Apr-10 12:24N 56°28' W 005°27'0 0.7
2019-Apr-10 11:54N 56°28' W 005°27'0 0.4
2019-Apr-10 11:21N 56°28' W 005°27'0 0.4
2019-Apr-10 11:00N 56°28' W 005°27'0 0.2
2019-Apr-10 10:31N 56°28' W 005°27'0 0.6
2019-Apr-10 10:00N 56°28' W 005°26'0 0.3
2019-Apr-10 09:26N 56°29' W 005°26'0 0.8
2019-Apr-10 09:01N 56°29' W 005°26'0 0.4
2019-Apr-10 08:30N 56°29' W 005°26'  
Track history (hours):
 
Tides and Currents Weather Stations Pressure Air Temp Water Temp Dewpoint Dewpoint Depression Visibility Wind Speed Wind Dir Waves Ship Positions

Oceanographic research ship Calanus - UK (UK)

Detailed information on ship capabilities available from University of Delaware's Ocean Information Center.

Last reported at 2019-Apr-11 15:22 UTC. Time now 2019-Apr-19 10:20 UTC.
Position N 56°27' W 005°26'.

Length 19 m.

Type: Dredging. MMSI: 235050871.

Date/timePositionNaut miles runAvg speedWind from/ knotsBaromVisibWave heightAir tempDewpointWater temp
2019-Apr-11 15:22N 56°27' W 005°26'2 4.3
2019-Apr-11 14:58N 56°29' W 005°26'2 4.1
2019-Apr-11 14:28N 56°28' W 005°29'0 0.3
2019-Apr-11 13:55N 56°28' W 005°29'0 0.9
2019-Apr-11 13:24N 56°28' W 005°30'0 0.2
2019-Apr-11 12:55N 56°28' W 005°30'0 1.2
2019-Apr-11 12:30N 56°28' W 005°31'3 4.7
2019-Apr-11 11:57N 56°26' W 005°33'1 1.8
2019-Apr-11 11:11N 56°26' W 005°31'1 2.7
2019-Apr-11 11:00N 56°27' W 005°30'2 3.5
2019-Apr-11 10:30N 56°28' W 005°28'1 1.8
2019-Apr-11 10:00N 56°28' W 005°27'0 0.8
2019-Apr-11 09:29N 56°29' W 005°26'0 0.8
2019-Apr-11 08:58N 56°29' W 005°27'1 2.7
2019-Apr-11 08:30N 56°29' W 005°29'2 0.1
2019-Apr-10 16:47N 56°27' W 005°26'1 4.4
2019-Apr-10 16:28N 56°29' W 005°27'0 0.3
2019-Apr-10 15:57N 56°29' W 005°27'0 0.7
2019-Apr-10 15:25N 56°28' W 005°26'1 0.9
2019-Apr-10 14:47N 56°28' W 005°27'1 1.6
2019-Apr-10 14:23N 56°28' W 005°28'0 0.8
2019-Apr-10 14:00N 56°28' W 005°27'0 0.1
2019-Apr-10 13:15N 56°28' W 005°27'0 0.1
2019-Apr-10 12:48N 56°28' W 005°27'0 0.1
2019-Apr-10 12:24N 56°28' W 005°27'0 0.7
2019-Apr-10 11:54N 56°28' W 005°27'0 0.4
2019-Apr-10 11:21N 56°28' W 005°27'0 0.4
2019-Apr-10 11:00N 56°28' W 005°27'0 0.2
2019-Apr-10 10:31N 56°28' W 005°27'0 0.6
2019-Apr-10 10:00N 56°28' W 005°26'0 0.3
2019-Apr-10 09:26N 56°29' W 005°26'0 0.8
2019-Apr-10 09:01N 56°29' W 005°26'0 0.4
2019-Apr-10 08:30N 56°29' W 005°26'  

Dump ship's entire track history